createdAt,value
2022-09-21T00:00:35.338Z,1022.80
2022-09-21T00:01:35.309Z,1022.90
2022-09-21T00:02:35.324Z,1022.83
2022-09-21T00:03:35.314Z,1022.85
2022-09-21T00:04:35.282Z,1022.80
2022-09-21T00:05:35.250Z,1022.86
2022-09-21T00:06:35.253Z,1022.85
2022-09-21T00:07:35.241Z,1022.86
2022-09-21T00:08:35.252Z,1022.85
2022-09-21T00:09:35.213Z,1022.85
2022-09-21T00:10:35.189Z,1022.85
2022-09-21T00:11:35.193Z,1022.83
2022-09-21T00:12:35.172Z,1022.86
2022-09-21T00:13:35.161Z,1022.82
2022-09-21T00:14:35.139Z,1022.93
2022-09-21T00:15:35.119Z,1022.83
2022-09-21T00:16:35.173Z,1022.80
2022-09-21T00:17:35.098Z,1022.79
2022-09-21T00:18:35.099Z,1022.79
2022-09-21T00:19:35.099Z,1022.82
2022-09-21T00:20:35.082Z,1022.81
2022-09-21T00:21:35.058Z,1022.80
2022-09-21T00:22:35.028Z,1022.79
2022-09-21T00:23:42.604Z,1022.81
2022-09-21T00:24:35.008Z,1022.83
2022-09-21T00:25:35.000Z,1022.82
2022-09-21T00:26:34.990Z,1022.82
2022-09-21T00:27:34.981Z,1022.82
2022-09-21T00:28:34.955Z,1022.77
2022-09-21T00:29:34.964Z,1022.82
2022-09-21T00:30:34.925Z,1022.79
2022-09-21T00:31:35.017Z,1022.84
2022-09-21T00:32:34.911Z,1022.87
2022-09-21T00:33:34.901Z,1022.89
2022-09-21T00:34:34.885Z,1022.85
2022-09-21T00:35:34.858Z,1022.85
2022-09-21T00:36:34.870Z,1022.85
2022-09-21T00:37:34.848Z,1022.95
2022-09-21T00:38:34.836Z,1022.94
2022-09-21T00:39:34.825Z,1022.95
2022-09-21T00:40:34.887Z,1022.94
2022-09-21T00:41:34.784Z,1022.95
2022-09-21T00:42:34.782Z,1022.92
2022-09-21T00:43:34.756Z,1022.95
2022-09-21T00:44:34.762Z,1022.99
2022-09-21T00:45:34.787Z,1023.01
2022-09-21T00:46:34.735Z,1023.02
2022-09-21T00:47:34.705Z,1022.99
2022-09-21T00:48:34.703Z,1023.01
2022-09-21T00:49:34.673Z,1023.00
2022-09-21T00:50:34.697Z,1023.01
2022-09-21T00:51:34.678Z,1022.97
2022-09-21T00:52:34.643Z,1023.00
2022-09-21T00:53:34.623Z,1022.99
2022-09-21T00:54:34.626Z,1023.02
2022-09-21T00:55:34.612Z,1022.99
2022-09-21T00:56:34.582Z,1022.98
2022-09-21T00:57:34.587Z,1022.94
2022-09-21T00:58:34.578Z,1023.04
2022-09-21T00:59:34.565Z,1022.97
2022-09-21T01:00:34.556Z,1023.02
2022-09-21T01:01:34.519Z,1023.00
2022-09-21T01:02:34.518Z,1023.05
2022-09-21T01:03:34.503Z,1022.99
2022-09-21T01:04:34.489Z,1023.05
2022-09-21T01:05:34.514Z,1023.02
2022-09-21T01:06:34.458Z,1023.01
2022-09-21T01:07:34.456Z,1023.00
2022-09-21T01:08:34.448Z,1023.05
2022-09-21T01:09:34.504Z,1023.02
2022-09-21T01:10:34.430Z,1023.01
2022-09-21T01:11:34.391Z,1023.01
2022-09-21T01:12:34.388Z,1023.01
2022-09-21T01:13:34.360Z,1022.96
2022-09-21T01:14:34.363Z,1022.99
2022-09-21T01:15:34.369Z,1022.98
2022-09-21T01:16:34.384Z,1022.98
2022-09-21T01:17:34.322Z,1022.98
2022-09-21T01:18:34.304Z,1023.00
2022-09-21T01:19:34.280Z,1022.98
2022-09-21T01:20:34.292Z,1022.95
2022-09-21T01:21:34.269Z,1022.99
2022-09-21T01:22:34.263Z,1022.99
2022-09-21T01:23:34.242Z,1022.96
2022-09-21T01:24:34.219Z,1023.01
2022-09-21T01:25:34.208Z,1023.02
2022-09-21T01:26:34.209Z,1023.04
2022-09-21T01:27:34.186Z,1023.05
2022-09-21T01:28:34.181Z,1023.01
2022-09-21T01:29:34.161Z,1023.01
2022-09-21T01:30:34.146Z,1022.98
2022-09-21T01:31:34.225Z,1023.01
2022-09-21T01:32:34.130Z,1023.08
2022-09-21T01:33:34.106Z,1023.01
2022-09-21T01:34:34.113Z,1023.08
2022-09-21T01:35:34.077Z,1023.06
2022-09-21T01:36:34.079Z,1023.01
2022-09-21T01:37:34.079Z,1023.02
2022-09-21T01:38:34.047Z,1023.05
2022-09-21T01:39:34.026Z,1023.08
2022-09-21T01:40:35.828Z,1023.03
2022-09-21T01:41:34.007Z,1023.07
2022-09-21T01:42:34.033Z,1023.05
2022-09-21T01:43:33.972Z,1023.09
2022-09-21T01:44:33.979Z,1023.05
2022-09-21T01:45:33.974Z,1023.06
2022-09-21T01:46:33.958Z,1023.04
2022-09-21T01:47:33.937Z,1023.07
2022-09-21T01:48:33.909Z,1023.08
2022-09-21T01:49:33.887Z,1023.03
2022-09-21T01:50:33.882Z,1023.02
2022-09-21T01:51:33.881Z,1023.10
2022-09-21T01:52:33.865Z,1023.10
2022-09-21T01:53:33.845Z,1023.11
2022-09-21T01:54:33.847Z,1023.14
2022-09-21T01:55:33.821Z,1023.04
2022-09-21T01:56:33.803Z,1023.11
2022-09-21T01:57:33.828Z,1023.11
2022-09-21T01:58:33.787Z,1023.09
2022-09-21T01:59:33.765Z,1023.05
2022-09-21T02:00:33.800Z,1023.06
2022-09-21T02:01:33.734Z,1023.09
2022-09-21T02:02:33.743Z,1023.09
2022-09-21T02:03:33.739Z,1023.10
2022-09-21T02:04:33.715Z,1023.08
2022-09-21T02:05:33.705Z,1023.05
2022-09-21T02:06:33.685Z,1023.08
2022-09-21T02:07:33.686Z,1023.07
2022-09-21T02:08:33.654Z,1023.06
2022-09-21T02:09:33.642Z,1023.09
2022-09-21T02:10:33.620Z,1023.09
2022-09-21T02:11:33.626Z,1023.04
2022-09-21T02:12:33.625Z,1023.04
2022-09-21T02:13:33.598Z,1023.04
2022-09-21T02:14:33.585Z,1023.01
2022-09-21T02:15:33.561Z,1022.99
2022-09-21T02:16:33.575Z,1023.05
2022-09-21T02:17:33.546Z,1023.08
2022-09-21T02:18:33.534Z,1023.06
2022-09-21T02:19:33.500Z,1023.04
2022-09-21T02:20:33.532Z,1023.05
2022-09-21T02:21:33.494Z,1023.04
2022-09-21T02:22:33.461Z,1023.07
2022-09-21T02:23:33.470Z,1023.08
2022-09-21T02:24:33.443Z,1023.08
2022-09-21T02:25:33.422Z,1023.07
2022-09-21T02:26:33.416Z,1023.08
2022-09-21T02:27:33.398Z,1023.07
2022-09-21T02:28:33.419Z,1023.02
2022-09-21T02:29:33.392Z,1023.07
2022-09-21T02:30:33.372Z,1023.01
2022-09-21T02:31:33.400Z,1023.01
2022-09-21T02:32:33.352Z,1023.04
2022-09-21T02:33:33.362Z,1023.04
2022-09-21T02:34:33.325Z,1023.04
2022-09-21T02:35:33.310Z,1023.00
2022-09-21T02:36:33.288Z,1023.03
2022-09-21T02:37:33.267Z,1023.03
2022-09-21T02:38:33.247Z,1022.99
2022-09-21T02:39:33.270Z,1022.99
2022-09-21T02:40:33.276Z,1023.02
2022-09-21T02:41:33.244Z,1022.99
2022-09-21T02:42:33.206Z,1023.01
2022-09-21T02:43:33.207Z,1023.06
2022-09-21T02:44:33.188Z,1023.00
2022-09-21T02:45:33.198Z,1023.03
2022-09-21T02:46:33.189Z,1022.99
2022-09-21T02:47:33.159Z,1023.00
2022-09-21T02:48:33.139Z,1023.03
2022-09-21T02:49:33.139Z,1023.02
2022-09-21T02:50:33.109Z,1023.02
2022-09-21T02:51:33.095Z,1023.00
2022-09-21T02:52:33.080Z,1023.03
2022-09-21T02:53:33.074Z,1023.05
2022-09-21T02:54:33.062Z,1023.02
2022-09-21T02:55:33.033Z,1023.01
2022-09-21T02:56:33.023Z,1023.00
2022-09-21T02:57:33.019Z,1023.02
2022-09-21T02:58:32.996Z,1023.02
2022-09-21T02:59:33.000Z,1023.01
2022-09-21T03:00:33.000Z,1022.98
2022-09-21T03:01:32.990Z,1023.00
2022-09-21T03:02:32.943Z,1022.97
2022-09-21T03:03:32.930Z,1022.94
2022-09-21T03:04:32.935Z,1022.92
2022-09-21T03:05:32.893Z,1022.95
2022-09-21T03:06:32.883Z,1022.98
2022-09-21T03:07:32.895Z,1022.97
2022-09-21T03:08:32.853Z,1022.96
2022-09-21T03:09:32.864Z,1022.89
2022-09-21T03:10:32.826Z,1022.88
2022-09-21T03:11:32.856Z,1022.93
2022-09-21T03:12:32.815Z,1022.91
2022-09-21T03:13:32.802Z,1022.95
2022-09-21T03:14:32.789Z,1022.94
2022-09-21T03:15:32.781Z,1022.91
2022-09-21T03:16:32.753Z,1022.89
2022-09-21T03:17:32.778Z,1022.90
2022-09-21T03:18:32.745Z,1022.86
2022-09-21T03:19:32.721Z,1022.92
2022-09-21T03:20:32.730Z,1022.92
2022-09-21T03:21:32.710Z,1022.88
2022-09-21T03:22:32.693Z,1022.95
2022-09-21T03:23:32.674Z,1022.91
2022-09-21T03:24:32.651Z,1023.01
2022-09-21T03:25:32.673Z,1022.99
2022-09-21T03:26:32.639Z,1023.03
2022-09-21T03:27:32.619Z,1022.98
2022-09-21T03:28:32.601Z,1023.04
2022-09-21T03:29:32.613Z,1023.00
2022-09-21T03:30:32.602Z,1023.01
2022-09-21T03:31:32.633Z,1023.08
2022-09-21T03:32:32.549Z,1023.01
2022-09-21T03:33:32.543Z,1023.05
2022-09-21T03:34:32.539Z,1023.03
2022-09-21T03:35:32.542Z,1023.07
2022-09-21T03:36:32.510Z,1023.05
2022-09-21T03:37:32.490Z,1023.12
2022-09-21T03:38:32.468Z,1023.07
2022-09-21T03:39:32.459Z,1023.12
2022-09-21T03:40:32.490Z,1023.12
2022-09-21T03:41:32.461Z,1023.11
2022-09-21T03:42:32.417Z,1023.11
2022-09-21T03:43:32.426Z,1023.08
2022-09-21T03:44:32.409Z,1023.10
2022-09-21T03:45:32.400Z,1023.05
2022-09-21T03:46:32.448Z,1023.06
2022-09-21T03:47:32.370Z,1023.04
2022-09-21T03:48:32.356Z,1023.03
2022-09-21T03:49:32.328Z,1023.04
2022-09-21T03:50:32.329Z,1023.03
2022-09-21T03:51:32.306Z,1023.00
2022-09-21T03:52:32.310Z,1023.05
2022-09-21T03:53:32.299Z,1023.04
2022-09-21T03:54:32.277Z,1023.08
2022-09-21T03:55:32.271Z,1023.09
2022-09-21T03:56:32.258Z,1023.07
2022-09-21T03:57:32.250Z,1023.04
2022-09-21T03:58:32.230Z,1023.03
2022-09-21T03:59:32.205Z,1023.01
2022-09-21T04:00:32.183Z,1023.14
2022-09-21T04:01:32.216Z,1023.08
2022-09-21T04:02:32.231Z,1023.05
2022-09-21T04:03:32.160Z,1023.12
2022-09-21T04:04:32.131Z,1023.07
2022-09-21T04:05:32.128Z,1023.08
2022-09-21T04:06:32.104Z,1023.11
2022-09-21T04:07:32.117Z,1023.10
2022-09-21T04:08:32.087Z,1023.06
2022-09-21T04:09:32.084Z,1023.10
2022-09-21T04:10:32.052Z,1023.11
2022-09-21T04:11:32.043Z,1023.04
2022-09-21T04:12:32.045Z,1023.12
2022-09-21T04:13:32.012Z,1023.09
2022-09-21T04:14:32.016Z,1023.06
2022-09-21T04:15:32.082Z,1023.09
2022-09-21T04:16:31.986Z,1023.14
2022-09-21T04:17:31.974Z,1023.07
2022-09-21T04:18:31.975Z,1023.09
2022-09-21T04:19:31.931Z,1023.11
2022-09-21T04:20:31.934Z,1023.11
2022-09-21T04:21:31.909Z,1023.13
2022-09-21T04:22:31.888Z,1023.11
2022-09-21T04:23:31.925Z,1023.14
2022-09-21T04:24:31.874Z,1023.13
2022-09-21T04:25:31.874Z,1023.12
2022-09-21T04:26:31.853Z,1023.19
2022-09-21T04:27:31.829Z,1023.20
2022-09-21T04:28:31.835Z,1023.16
2022-09-21T04:29:31.818Z,1023.22
2022-09-21T04:30:35.578Z,1023.21
2022-09-21T04:31:32.792Z,1023.21
2022-09-21T04:32:31.779Z,1023.19
2022-09-21T04:33:31.777Z,1023.27
2022-09-21T04:34:31.750Z,1023.23
2022-09-21T04:35:31.730Z,1023.23
2022-09-21T04:36:36.290Z,1023.30
2022-09-21T04:37:32.698Z,1023.24
2022-09-21T04:38:31.695Z,1023.22
2022-09-21T04:39:31.702Z,1023.28
2022-09-21T04:40:31.731Z,1023.25
2022-09-21T04:41:31.646Z,1023.20
2022-09-21T04:42:31.627Z,1023.22
2022-09-21T04:43:31.628Z,1023.30
2022-09-21T04:44:31.628Z,1023.30
2022-09-21T04:45:31.611Z,1023.28
2022-09-21T04:46:31.673Z,1023.27
2022-09-21T04:47:31.577Z,1023.32
2022-09-21T04:48:31.569Z,1023.30
2022-09-21T04:49:31.544Z,1023.29
2022-09-21T04:50:31.539Z,1023.28
2022-09-21T04:51:31.529Z,1023.27
2022-09-21T04:52:31.522Z,1023.35
2022-09-21T04:53:31.486Z,1023.36
2022-09-21T04:54:31.487Z,1023.32
2022-09-21T04:55:31.515Z,1023.28
2022-09-21T04:56:31.464Z,1023.26
2022-09-21T04:57:31.449Z,1023.37
2022-09-21T04:58:31.428Z,1023.30
2022-09-21T04:59:31.440Z,1023.30
2022-09-21T05:00:31.395Z,1023.38
2022-09-21T05:01:31.457Z,1023.38
2022-09-21T05:02:31.379Z,1023.38
2022-09-21T05:03:31.401Z,1023.39
2022-09-21T05:04:31.357Z,1023.36
2022-09-21T05:05:31.338Z,1023.38
2022-09-21T05:06:31.347Z,1023.46
2022-09-21T05:07:31.354Z,1023.43
2022-09-21T05:08:31.283Z,1023.40
2022-09-21T05:09:31.297Z,1023.44
2022-09-21T05:10:31.276Z,1023.48
2022-09-21T05:11:31.270Z,1023.44
2022-09-21T05:12:31.266Z,1023.42
2022-09-21T05:13:31.236Z,1023.50
2022-09-21T05:14:31.276Z,1023.53
2022-09-21T05:15:31.309Z,1023.51
2022-09-21T05:16:31.199Z,1023.52
2022-09-21T05:17:31.208Z,1023.50
2022-09-21T05:18:31.168Z,1023.48
2022-09-21T05:19:31.158Z,1023.53
2022-09-21T05:20:31.132Z,1023.57
2022-09-21T05:21:31.202Z,1023.56
2022-09-21T05:22:31.116Z,1023.56
2022-09-21T05:23:31.116Z,1023.49
2022-09-21T05:24:31.073Z,1023.54
2022-09-21T05:25:31.063Z,1023.58
2022-09-21T05:26:31.061Z,1023.55
2022-09-21T05:27:31.042Z,1023.63
2022-09-21T05:28:31.054Z,1023.62
2022-09-21T05:29:31.045Z,1023.60
2022-09-21T05:30:31.072Z,1023.67
2022-09-21T05:31:31.069Z,1023.65
2022-09-21T05:32:30.998Z,1023.61
2022-09-21T05:33:30.981Z,1023.65
2022-09-21T05:34:34.328Z,1023.70
2022-09-21T05:35:31.954Z,1023.69
2022-09-21T05:36:30.942Z,1023.71
2022-09-21T05:37:30.909Z,1023.72
2022-09-21T05:38:30.911Z,1023.67
2022-09-21T05:39:30.889Z,1023.70
2022-09-21T05:40:30.944Z,1023.69
2022-09-21T05:41:30.859Z,1023.68
2022-09-21T05:42:30.839Z,1023.69
2022-09-21T05:43:30.861Z,1023.71
2022-09-21T05:44:30.840Z,1023.72
2022-09-21T05:45:30.812Z,1023.71
2022-09-21T05:46:30.800Z,1023.71
2022-09-21T05:47:30.781Z,1023.71
2022-09-21T05:48:30.782Z,1023.74
2022-09-21T05:49:30.757Z,1023.74
2022-09-21T05:50:30.730Z,1023.81
2022-09-21T05:51:30.732Z,1023.71
2022-09-21T05:52:30.789Z,1023.75
2022-09-21T05:53:30.724Z,1023.67
2022-09-21T05:54:30.715Z,1023.79
2022-09-21T05:55:30.687Z,1023.69
2022-09-21T05:56:30.689Z,1023.73
2022-09-21T05:57:31.130Z,1023.82
2022-09-21T05:58:30.640Z,1023.78
2022-09-21T05:59:30.638Z,1023.76
2022-09-21T06:00:30.643Z,1023.88
2022-09-21T06:01:30.645Z,1023.84
2022-09-21T06:02:30.620Z,1023.80
2022-09-21T06:03:30.580Z,1023.83
2022-09-21T06:04:30.568Z,1023.78
2022-09-21T06:05:30.575Z,1023.86
2022-09-21T06:06:30.546Z,1023.86
2022-09-21T06:07:30.514Z,1023.82
2022-09-21T06:08:30.502Z,1023.81
2022-09-21T06:09:30.522Z,1023.87
2022-09-21T06:10:30.534Z,1023.87
2022-09-21T06:11:30.475Z,1023.92
2022-09-21T06:12:30.476Z,1023.95
2022-09-21T06:13:30.449Z,1023.89
2022-09-21T06:14:30.461Z,1023.95
2022-09-21T06:15:30.445Z,1023.97
2022-09-21T06:16:30.450Z,1023.97
2022-09-21T06:17:30.382Z,1024.04
2022-09-21T06:18:30.685Z,1023.94
2022-09-21T06:19:30.372Z,1023.94
2022-09-21T06:20:30.407Z,1023.98
2022-09-21T06:21:30.376Z,1023.99
2022-09-21T06:22:30.342Z,1024.04
2022-09-21T06:23:30.314Z,1024.00
2022-09-21T06:24:37.407Z,1024.05
2022-09-21T06:25:32.011Z,1024.01
2022-09-21T06:26:30.302Z,1024.06
2022-09-21T06:27:32.973Z,1024.02
2022-09-21T06:28:30.243Z,1024.07
2022-09-21T06:29:30.231Z,1024.08
2022-09-21T06:30:30.280Z,1024.08
2022-09-21T06:31:30.216Z,1024.08
2022-09-21T06:32:30.188Z,1024.07
2022-09-21T06:33:30.181Z,1024.06
2022-09-21T06:34:30.199Z,1024.10
2022-09-21T06:35:30.145Z,1024.04
2022-09-21T06:36:30.151Z,1024.09
2022-09-21T06:37:30.136Z,1024.05
2022-09-21T06:38:30.128Z,1024.08
2022-09-21T06:39:30.097Z,1024.05
2022-09-21T06:40:30.145Z,1024.02
2022-09-21T06:41:30.064Z,1024.06
2022-09-21T06:42:30.071Z,1024.01
2022-09-21T06:43:30.058Z,1024.07
2022-09-21T06:44:30.031Z,1024.06
2022-09-21T06:45:30.026Z,1024.09
2022-09-21T06:46:30.013Z,1024.07
2022-09-21T06:47:30.017Z,1024.13
2022-09-21T06:48:29.998Z,1024.14
2022-09-21T06:49:29.981Z,1024.09
2022-09-21T06:50:29.961Z,1024.06
2022-09-21T06:51:29.936Z,1024.08
2022-09-21T06:52:29.943Z,1024.13
2022-09-21T06:53:29.924Z,1024.11
2022-09-21T06:54:29.901Z,1024.13
2022-09-21T06:55:29.907Z,1024.15
2022-09-21T06:56:29.875Z,1024.14
2022-09-21T06:57:29.862Z,1024.17
2022-09-21T06:58:29.872Z,1024.14
2022-09-21T06:59:29.846Z,1024.12
2022-09-21T07:00:29.830Z,1024.16
2022-09-21T07:01:29.957Z,1024.18
2022-09-21T07:02:29.794Z,1024.14
2022-09-21T07:03:29.835Z,1024.18
2022-09-21T07:04:29.768Z,1024.22
2022-09-21T07:05:29.758Z,1024.18
2022-09-21T07:06:29.754Z,1024.20
2022-09-21T07:07:29.745Z,1024.21
2022-09-21T07:10:30.775Z,1024.17
2022-09-21T07:11:29.678Z,1024.17
2022-09-21T07:12:29.684Z,1024.19
2022-09-21T07:13:29.654Z,1024.25
2022-09-21T07:14:29.649Z,1024.19
2022-09-21T07:15:29.620Z,1024.17
2022-09-21T07:16:29.685Z,1024.19
2022-09-21T07:17:29.598Z,1024.19
2022-09-21T07:18:30.373Z,1024.22
2022-09-21T07:19:29.587Z,1024.23
2022-09-21T07:20:29.582Z,1024.21
2022-09-21T07:21:29.550Z,1024.17
2022-09-21T07:22:29.530Z,1024.23
2022-09-21T07:23:29.531Z,1024.16
2022-09-21T07:24:29.533Z,1024.17
2022-09-21T07:25:29.489Z,1024.22
2022-09-21T07:26:29.509Z,1024.14
2022-09-21T07:27:29.471Z,1024.18
2022-09-21T07:28:29.477Z,1024.21
2022-09-21T07:29:29.438Z,1024.18
2022-09-21T07:30:29.454Z,1024.14
2022-09-21T07:31:29.436Z,1024.20
2022-09-21T07:32:29.433Z,1024.18
2022-09-21T07:33:33.904Z,1024.11
2022-09-21T07:34:30.389Z,1024.23
2022-09-21T07:35:29.402Z,1024.20
2022-09-21T07:36:29.362Z,1024.12
2022-09-21T07:37:29.349Z,1024.14
2022-09-21T07:38:29.331Z,1024.14
2022-09-21T07:39:29.305Z,1024.06
2022-09-21T07:40:29.399Z,1024.13
2022-09-21T07:41:29.333Z,1024.15
2022-09-21T07:42:29.265Z,1024.10
2022-09-21T07:43:29.279Z,1024.14
2022-09-21T07:44:29.283Z,1024.10
2022-09-21T07:45:29.274Z,1024.11
2022-09-21T07:46:29.239Z,1024.12
2022-09-21T07:47:29.218Z,1024.12
2022-09-21T07:48:29.217Z,1024.14
2022-09-21T07:49:29.174Z,1024.12
2022-09-21T07:50:29.178Z,1024.12
2022-09-21T07:51:29.186Z,1024.15
2022-09-21T07:52:29.150Z,1024.13
2022-09-21T07:53:29.136Z,1024.11
2022-09-21T07:54:29.134Z,1024.10
2022-09-21T07:55:29.116Z,1024.10
2022-09-21T07:56:29.136Z,1024.11
2022-09-21T07:57:29.088Z,1024.15
2022-09-21T07:58:29.067Z,1024.12
2022-09-21T07:59:29.042Z,1024.05
2022-09-21T08:00:29.046Z,1024.06
2022-09-21T08:01:29.086Z,1024.08
2022-09-21T08:02:29.117Z,1024.09
2022-09-21T08:03:29.006Z,1024.05
2022-09-21T08:04:29.005Z,1024.03
2022-09-21T08:05:28.992Z,1024.12
2022-09-21T08:06:28.992Z,1024.03
2022-09-21T08:07:28.964Z,1024.07
2022-09-21T08:08:28.930Z,1024.13
2022-09-21T08:09:28.928Z,1024.11
2022-09-21T08:10:28.900Z,1024.10
2022-09-21T08:11:28.917Z,1024.07
2022-09-21T08:12:29.162Z,1024.11
2022-09-21T08:13:28.874Z,1023.97
2022-09-21T08:14:28.858Z,1024.09
2022-09-21T08:15:48.821Z,1024.14
2022-09-21T08:16:29.915Z,1024.08
2022-09-21T08:17:28.831Z,1024.09
2022-09-21T08:18:28.811Z,1024.08
2022-09-21T08:19:28.777Z,1024.09
2022-09-21T08:20:28.780Z,1024.09
2022-09-21T08:21:28.772Z,1024.11
2022-09-21T08:22:28.770Z,1024.04
2022-09-21T08:23:28.753Z,1024.06
2022-09-21T08:24:28.733Z,1024.13
2022-09-21T08:25:28.708Z,1024.07
2022-09-21T08:26:28.726Z,1024.09
2022-09-21T08:27:28.736Z,1024.12
2022-09-21T08:28:28.691Z,1024.14
2022-09-21T08:29:28.686Z,1024.08
2022-09-21T08:30:28.690Z,1024.15
2022-09-21T08:31:28.699Z,1024.17
2022-09-21T08:32:50.054Z,1024.14
2022-09-21T08:33:29.985Z,1024.14
2022-09-21T08:34:28.595Z,1024.21
2022-09-21T08:35:28.570Z,1024.14
2022-09-21T08:36:28.559Z,1024.15
2022-09-21T08:37:28.546Z,1024.17
2022-09-21T08:38:28.657Z,1024.18
2022-09-21T08:39:28.532Z,1024.21
2022-09-21T08:40:28.572Z,1024.14
2022-09-21T08:41:28.496Z,1024.12
2022-09-21T08:42:28.497Z,1024.10
2022-09-21T08:43:28.479Z,1024.14
2022-09-21T08:44:28.480Z,1024.16
2022-09-21T08:45:28.991Z,1024.15
2022-09-21T08:46:28.483Z,1024.12
2022-09-21T08:47:28.564Z,1024.14
2022-09-21T08:48:31.979Z,1024.11
2022-09-21T08:49:29.396Z,1024.16
2022-09-21T08:50:28.453Z,1024.10
2022-09-21T08:51:28.367Z,1024.08
2022-09-21T08:52:28.369Z,1024.07
2022-09-21T08:53:28.336Z,1024.10
2022-09-21T08:54:28.346Z,1024.10
2022-09-21T08:55:28.363Z,1024.10
2022-09-21T08:56:47.170Z,1024.05
2022-09-21T08:57:29.297Z,1024.09
2022-09-21T08:58:28.300Z,1024.12
2022-09-21T08:59:28.265Z,1024.14
2022-09-21T09:00:28.298Z,1024.13
2022-09-21T09:01:28.332Z,1024.09
2022-09-21T09:02:28.237Z,1024.15
2022-09-21T09:03:28.215Z,1024.14
2022-09-21T09:04:28.241Z,1024.12
2022-09-21T09:05:28.196Z,1024.13
2022-09-21T09:06:28.177Z,1024.13
2022-09-21T09:07:28.178Z,1024.17
2022-09-21T09:08:28.156Z,1024.14
2022-09-21T09:09:28.138Z,1024.17
2022-09-21T09:10:28.148Z,1024.20
2022-09-21T09:11:28.115Z,1024.13
2022-09-21T09:12:28.093Z,1024.17
2022-09-21T09:13:28.074Z,1024.10
2022-09-21T09:14:28.061Z,1024.15
2022-09-21T09:15:28.106Z,1024.14
2022-09-21T09:16:28.062Z,1024.15
2022-09-21T09:17:28.046Z,1024.09
2022-09-21T09:18:28.022Z,1024.10
2022-09-21T09:19:28.012Z,1024.09
2022-09-21T09:20:28.006Z,1024.13
2022-09-21T09:21:31.800Z,1024.10
2022-09-21T09:22:27.973Z,1024.07
2022-09-21T09:23:27.954Z,1024.09
2022-09-21T09:24:27.954Z,1024.13
2022-09-21T09:25:27.931Z,1024.18
2022-09-21T09:26:27.930Z,1024.12
2022-09-21T09:27:27.917Z,1024.14
2022-09-21T09:28:27.938Z,1024.11
2022-09-21T09:29:27.879Z,1024.18
2022-09-21T09:30:27.849Z,1024.13
2022-09-21T09:31:27.914Z,1024.08
2022-09-21T09:32:27.838Z,1024.08
2022-09-21T09:33:27.842Z,1024.15
2022-09-21T09:34:27.833Z,1024.07
2022-09-21T09:35:27.787Z,1024.09
2022-09-21T09:36:53.667Z,1024.10
2022-09-21T09:37:28.767Z,1024.09
2022-09-21T09:38:27.755Z,1024.10
2022-09-21T09:39:27.750Z,1024.16
2022-09-21T09:40:27.796Z,1024.13
2022-09-21T09:41:27.731Z,1024.11
2022-09-21T09:42:27.734Z,1024.08
2022-09-21T09:43:27.696Z,1024.04
2022-09-21T09:44:27.682Z,1024.09
2022-09-21T09:45:27.670Z,1024.04
2022-09-21T09:46:27.746Z,1024.06
2022-09-21T09:47:27.660Z,1024.04
2022-09-21T09:48:27.647Z,1024.07
2022-09-21T09:49:27.608Z,1024.01
2022-09-21T09:50:27.596Z,1024.04
2022-09-21T09:51:27.609Z,1024.01
2022-09-21T09:52:27.587Z,1024.06
2022-09-21T09:53:27.564Z,1024.03
2022-09-21T09:54:27.546Z,1024.03
2022-09-21T09:55:27.540Z,1024.00
2022-09-21T09:56:27.529Z,1024.01
2022-09-21T09:57:27.522Z,1023.97
2022-09-21T09:58:27.499Z,1024.07
2022-09-21T09:59:27.487Z,1023.99
2022-09-21T10:00:27.455Z,1023.98
2022-09-21T10:01:27.554Z,1024.01
2022-09-21T10:02:27.445Z,1023.99
2022-09-21T10:03:27.428Z,1024.02
2022-09-21T10:04:27.453Z,1023.99
2022-09-21T10:05:27.407Z,1024.01
2022-09-21T10:06:27.429Z,1024.01
2022-09-21T10:07:27.385Z,1023.98
2022-09-21T10:08:27.385Z,1023.97
2022-09-21T10:09:27.346Z,1024.04
2022-09-21T10:10:27.376Z,1024.00
2022-09-21T10:11:27.311Z,1024.03
2022-09-21T10:12:27.318Z,1023.97
2022-09-21T10:13:27.310Z,1024.00
2022-09-21T10:14:27.301Z,1023.95
2022-09-21T10:15:27.260Z,1023.98
2022-09-21T10:16:27.336Z,1023.92
2022-09-21T10:17:27.257Z,1023.94
2022-09-21T10:18:27.232Z,1023.93
2022-09-21T10:19:27.224Z,1023.90
2022-09-21T10:20:27.203Z,1023.94
2022-09-21T10:21:27.183Z,1023.91
2022-09-21T10:22:27.183Z,1023.99
2022-09-21T10:23:27.162Z,1023.91
2022-09-21T10:24:27.162Z,1023.92
2022-09-21T10:25:27.145Z,1023.89
2022-09-21T10:26:27.111Z,1023.90
2022-09-21T10:27:27.125Z,1023.91
2022-09-21T10:28:27.132Z,1023.93
2022-09-21T10:29:27.091Z,1023.84
2022-09-21T10:30:27.061Z,1023.85
2022-09-21T10:31:27.201Z,1023.89
2022-09-21T10:32:27.041Z,1023.86
2022-09-21T10:33:27.041Z,1023.83
2022-09-21T10:34:27.024Z,1023.90
2022-09-21T10:35:27.007Z,1023.83
2022-09-21T10:36:27.004Z,1023.82
2022-09-21T10:37:27.002Z,1023.86
2022-09-21T10:38:27.841Z,1023.84
2022-09-21T10:39:27.160Z,1023.82
2022-09-21T10:40:28.182Z,1023.84
2022-09-21T10:41:27.085Z,1023.84
2022-09-21T10:42:27.195Z,1023.87
2022-09-21T10:43:28.416Z,1023.86
2022-09-21T10:44:27.469Z,1023.85
2022-09-21T10:45:26.941Z,1023.85
2022-09-21T10:46:26.911Z,1023.79
2022-09-21T10:47:26.862Z,1023.83
2022-09-21T10:48:26.833Z,1023.83
2022-09-21T10:49:26.829Z,1023.79
2022-09-21T10:50:26.851Z,1023.83
2022-09-21T10:51:26.813Z,1023.83
2022-09-21T10:52:26.792Z,1023.80
2022-09-21T10:53:26.780Z,1023.79
2022-09-21T10:54:26.750Z,1023.81
2022-09-21T10:55:26.755Z,1023.78
2022-09-21T10:56:26.722Z,1023.78
2022-09-21T10:57:26.710Z,1023.72
2022-09-21T10:58:26.698Z,1023.79
2022-09-21T10:59:26.702Z,1023.73
2022-09-21T11:00:26.672Z,1023.74
2022-09-21T11:01:26.733Z,1023.69
2022-09-21T11:02:26.699Z,1023.70
2022-09-21T11:03:26.640Z,1023.69
2022-09-21T11:04:26.633Z,1023.72
2022-09-21T11:05:26.632Z,1023.68
2022-09-21T11:06:26.606Z,1023.73
2022-09-21T11:07:26.600Z,1023.71
2022-09-21T11:08:26.577Z,1023.73
2022-09-21T11:09:26.554Z,1023.68
2022-09-21T11:10:28.844Z,1023.64
2022-09-21T11:11:26.546Z,1023.65
2022-09-21T11:12:26.516Z,1023.68
2022-09-21T11:13:26.498Z,1023.66
2022-09-21T11:14:26.498Z,1023.64
2022-09-21T11:15:26.559Z,1023.61
2022-09-21T11:16:26.454Z,1023.63
2022-09-21T11:17:26.474Z,1023.62
2022-09-21T11:18:26.428Z,1023.64
2022-09-21T11:19:26.438Z,1023.61
2022-09-21T11:20:26.404Z,1023.56
2022-09-21T11:21:26.411Z,1023.59
2022-09-21T11:22:26.394Z,1023.58
2022-09-21T11:23:26.378Z,1023.56
2022-09-21T11:24:26.352Z,1023.51
2022-09-21T11:25:26.357Z,1023.55
2022-09-21T11:26:26.336Z,1023.54
2022-09-21T11:27:26.343Z,1023.51
2022-09-21T11:28:26.326Z,1023.52
2022-09-21T11:30:26.275Z,1023.51
2022-09-21T11:31:26.277Z,1023.46
2022-09-21T11:32:26.273Z,1023.44
2022-09-21T11:33:26.246Z,1023.51
2022-09-21T11:34:26.244Z,1023.48
2022-09-21T11:35:26.250Z,1023.40
2022-09-21T11:36:26.214Z,1023.47
2022-09-21T11:37:26.190Z,1023.43
2022-09-21T11:38:26.336Z,1023.41
2022-09-21T11:39:26.181Z,1023.38
2022-09-21T11:40:26.174Z,1023.43
2022-09-21T11:41:26.135Z,1023.35
2022-09-21T11:42:26.147Z,1023.38
2022-09-21T11:43:26.122Z,1023.36
2022-09-21T11:44:26.111Z,1023.32
2022-09-21T11:45:26.091Z,1023.30
2022-09-21T11:46:26.180Z,1023.30
2022-09-21T11:47:26.065Z,1023.29
2022-09-21T11:48:26.075Z,1023.27
2022-09-21T11:49:26.034Z,1023.28
2022-09-21T11:50:30.658Z,1023.27
2022-09-21T11:51:27.014Z,1023.20
2022-09-21T11:52:26.002Z,1023.20
2022-09-21T11:53:26.014Z,1023.24
2022-09-21T11:54:25.973Z,1023.19
2022-09-21T11:55:25.985Z,1023.20
2022-09-21T11:56:25.929Z,1023.17
2022-09-21T11:57:25.920Z,1023.15
2022-09-21T11:58:25.912Z,1023.13
2022-09-21T11:59:25.901Z,1023.19
2022-09-21T12:00:25.887Z,1023.14
2022-09-21T12:01:25.905Z,1023.15
2022-09-21T12:02:26.083Z,1023.15
2022-09-21T12:03:25.849Z,1023.16
2022-09-21T12:04:25.841Z,1023.17
2022-09-21T12:05:25.843Z,1023.18
2022-09-21T12:06:25.855Z,1023.15
2022-09-21T12:07:25.812Z,1023.18
2022-09-21T12:08:25.775Z,1023.13